createdAt,value
2018-01-04T00:02:36.999Z,51.17
2018-01-04T00:17:37.930Z,55.53
2018-01-04T00:32:35.479Z,59.53
2018-01-04T00:47:34.346Z,67.23
2018-01-04T01:02:35.280Z,18.40
2018-01-04T01:17:35.213Z,12.23
2018-01-04T01:32:37.207Z,10.83
2018-01-04T01:47:33.369Z,6.60
2018-01-04T02:02:35.939Z,5.57
2018-01-04T02:17:37.481Z,5.13
2018-01-04T02:32:41.617Z,4.70
2018-01-04T02:47:34.027Z,8.60
2018-01-04T03:02:34.175Z,57.23
2018-01-04T03:17:34.624Z,45.97
2018-01-04T03:32:53.221Z,46.90
2018-01-04T03:47:40.616Z,37.67
2018-01-04T04:02:40.625Z,35.90
2018-01-04T04:17:36.435Z,45.13
2018-01-04T04:32:35.287Z,38.10
2018-01-04T04:47:35.262Z,39.27
2018-01-04T05:02:36.159Z,38.73
2018-01-04T05:17:35.083Z,36.97
2018-01-04T05:32:38.157Z,26.50
2018-01-04T05:47:34.528Z,25.97
2018-01-04T06:02:36.373Z,31.60
2018-01-04T06:17:36.307Z,34.93
2018-01-04T06:32:34.317Z,36.73
2018-01-04T06:47:33.504Z,26.07
2018-01-04T07:02:33.960Z,22.00
2018-01-04T07:17:34.094Z,20.20
2018-01-04T07:32:33.850Z,5.50
2018-01-04T07:47:35.448Z,5.60
2018-01-04T08:02:34.209Z,4.40
2018-01-04T08:17:39.547Z,5.70
2018-01-04T08:32:34.697Z,6.17
2018-01-04T08:47:35.654Z,5.30
2018-01-04T09:02:34.302Z,5.40
2018-01-04T09:17:34.343Z,3.53
2018-01-04T09:32:36.467Z,5.80
2018-01-04T09:47:34.394Z,4.90
2018-01-04T10:02:34.238Z,7.00
2018-01-04T10:17:35.257Z,5.83
2018-01-04T10:32:37.229Z,6.77
2018-01-04T10:47:34.515Z,5.90
2018-01-04T11:02:34.533Z,8.37
2018-01-04T11:17:34.395Z,8.53
2018-01-04T11:32:34.512Z,7.40
2018-01-04T11:47:34.288Z,7.60
2018-01-04T12:02:34.203Z,8.10
2018-01-04T12:17:34.753Z,9.53
2018-01-04T12:32:33.956Z,14.37
2018-01-04T12:47:35.559Z,9.20
2018-01-04T13:02:36.186Z,9.60
2018-01-04T13:17:34.445Z,12.67
2018-01-04T13:32:33.586Z,12.73
2018-01-04T13:47:35.755Z,11.70
2018-01-04T14:02:35.151Z,11.20
2018-01-04T14:17:34.908Z,10.20
2018-01-04T14:32:35.495Z,12.57
2018-01-04T14:47:34.399Z,12.97
2018-01-04T15:02:34.332Z,17.90
2018-01-04T15:17:33.581Z,13.40
2018-01-04T15:32:33.501Z,14.70
2018-01-04T15:47:33.910Z,9.97
2018-01-04T16:02:33.927Z,15.70
2018-01-04T16:17:33.290Z,11.13
2018-01-04T16:32:33.786Z,12.53
2018-01-04T16:47:33.658Z,11.50
2018-01-04T17:02:34.166Z,15.10
2018-01-04T17:17:35.591Z,17.30
2018-01-04T17:32:33.559Z,15.07
2018-01-04T17:47:34.470Z,11.97
2018-01-04T18:02:34.929Z,14.97
2018-01-04T18:17:34.360Z,16.33
2018-01-04T18:32:36.907Z,8.63
2018-01-04T18:47:36.673Z,11.03
2018-01-04T19:02:33.608Z,9.00
2018-01-04T19:17:34.509Z,14.20
2018-01-04T19:32:33.992Z,22.90
2018-01-04T19:47:34.587Z,23.93
2018-01-04T20:02:37.713Z,19.03
2018-01-04T20:17:34.092Z,16.77
2018-01-04T20:32:36.242Z,22.10
2018-01-04T20:47:34.905Z,23.03
2018-01-04T21:02:35.452Z,21.30
2018-01-04T21:17:34.745Z,27.37
2018-01-04T21:32:35.847Z,51.30
2018-01-04T21:47:34.924Z,58.20
2018-01-04T22:02:36.157Z,56.63
2018-01-04T22:17:34.742Z,62.87
2018-01-04T22:32:35.015Z,58.10
2018-01-04T22:47:36.434Z,59.67
2018-01-04T23:02:34.266Z,45.73
2018-01-04T23:17:36.216Z,53.77
2018-01-04T23:32:34.143Z,37.00
2018-01-04T23:47:34.547Z,41.40
